Oregon, Ohio
Current Conditions -  °F | °C
As of 4:53 AM on Friday 31 Oct 2014 (Local Time) from KTDZ Reporting Station
Overcast Overcast  
Wind Chill: 41°   Ceiling: 6000
Heat Index: 45°   Visibility: 10mi
Dew Point: 36°   Wind: 7mph
Humidity: 71%   Direction: 210°SSW
Pressure: 29.96"   Gusts: NA
Location:  41.65°N, 83.42°W
Report Text: KTDZ 310853Z AUTO 21006KT 10SM BKN060 OVC080 07/02 A2996 RMK AO2 SLP148 T00720022 58016 TSNO
Loading
Personal Weather Stations






























Interactive Weather Map
Tropical Storm Tracking
New forecast layout! Learn more

10-Day Weather Forecast

Advertisements
Track Severe Weather on mobile